sensor_id;sensor_type;location;lat;lon;timestamp;P1;durP1;ratioP1;P2;durP2;ratioP2
42912;SDS011;50720;54.324;18.558;2023-10-31T00:00:17;36.80;;;21.33;;
42912;SDS011;50720;54.324;18.558;2023-10-31T00:03:24;31.90;;;18.27;;
42912;SDS011;50720;54.324;18.558;2023-10-31T00:06:11;31.77;;;17.23;;
42912;SDS011;50720;54.324;18.558;2023-10-31T00:08:58;35.17;;;17.92;;
42912;SDS011;50720;54.324;18.558;2023-10-31T00:11:45;35.63;;;20.65;;
42912;SDS011;50720;54.324;18.558;2023-10-31T00:14:32;33.70;;;18.83;;
42912;SDS011;50720;54.324;18.558;2023-10-31T00:17:21;30.75;;;18.77;;
42912;SDS011;50720;54.324;18.558;2023-10-31T00:20:08;36.67;;;19.65;;
42912;SDS011;50720;54.324;18.558;2023-10-31T00:22:55;42.22;;;20.92;;
42912;SDS011;50720;54.324;18.558;2023-10-31T00:25:43;35.13;;;18.40;;
42912;SDS011;50720;54.324;18.558;2023-10-31T00:28:29;35.33;;;19.48;;
42912;SDS011;50720;54.324;18.558;2023-10-31T00:31:17;28.23;;;17.33;;
42912;SDS011;50720;54.324;18.558;2023-10-31T00:34:05;38.60;;;19.17;;
42912;SDS011;50720;54.324;18.558;2023-10-31T00:36:52;28.35;;;19.15;;
42912;SDS011;50720;54.324;18.558;2023-10-31T00:39:39;38.75;;;20.13;;
42912;SDS011;50720;54.324;18.558;2023-10-31T00:42:26;37.83;;;22.13;;
42912;SDS011;50720;54.324;18.558;2023-10-31T00:45:13;34.67;;;20.73;;
42912;SDS011;50720;54.324;18.558;2023-10-31T00:48:00;38.33;;;20.17;;
42912;SDS011;50720;54.324;18.558;2023-10-31T00:50:48;37.65;;;19.63;;
42912;SDS011;50720;54.324;18.558;2023-10-31T00:53:35;38.67;;;20.13;;
42912;SDS011;50720;54.324;18.558;2023-10-31T00:56:22;28.55;;;17.92;;
42912;SDS011;50720;54.324;18.558;2023-10-31T00:59:09;30.75;;;20.08;;
42912;SDS011;50720;54.324;18.558;2023-10-31T01:01:56;36.35;;;20.45;;
42912;SDS011;50720;54.324;18.558;2023-10-31T01:04:43;33.97;;;20.02;;
42912;SDS011;50720;54.324;18.558;2023-10-31T01:07:32;33.45;;;19.13;;
42912;SDS011;50720;54.324;18.558;2023-10-31T01:10:19;29.83;;;18.65;;
42912;SDS011;50720;54.324;18.558;2023-10-31T01:13:07;27.65;;;18.05;;
42912;SDS011;50720;54.324;18.558;2023-10-31T01:15:54;28.83;;;17.63;;
42912;SDS011;50720;54.324;18.558;2023-10-31T01:18:41;27.13;;;16.90;;
42912;SDS011;50720;54.324;18.558;2023-10-31T01:21:28;28.85;;;17.58;;
42912;SDS011;50720;54.324;18.558;2023-10-31T01:24:17;31.45;;;16.88;;
42912;SDS011;50720;54.324;18.558;2023-10-31T01:27:04;25.50;;;16.08;;
42912;SDS011;50720;54.324;18.558;2023-10-31T01:29:51;31.23;;;17.20;;
42912;SDS011;50720;54.324;18.558;2023-10-31T01:32:38;25.85;;;15.82;;
42912;SDS011;50720;54.324;18.558;2023-10-31T01:35:25;28.40;;;17.67;;
42912;SDS011;50720;54.324;18.558;2023-10-31T01:38:12;28.83;;;18.98;;
42912;SDS011;50720;54.324;18.558;2023-10-31T01:41:01;34.90;;;19.40;;
42912;SDS011;50720;54.324;18.558;2023-10-31T01:43:48;32.28;;;18.30;;
42912;SDS011;50720;54.324;18.558;2023-10-31T01:46:35;29.00;;;18.65;;
42912;SDS011;50720;54.324;18.558;2023-10-31T01:49:22;30.38;;;17.58;;
42912;SDS011;50720;54.324;18.558;2023-10-31T01:52:10;27.52;;;17.95;;
42912;SDS011;50720;54.324;18.558;2023-10-31T01:54:57;28.25;;;17.60;;
42912;SDS011;50720;54.324;18.558;2023-10-31T01:57:46;30.67;;;17.55;;
42912;SDS011;50720;54.324;18.558;2023-10-31T02:00:34;32.40;;;19.33;;
42912;SDS011;50720;54.324;18.558;2023-10-31T02:03:22;27.42;;;16.92;;
42912;SDS011;50720;54.324;18.558;2023-10-31T02:06:09;29.58;;;17.52;;
42912;SDS011;50720;54.324;18.558;2023-10-31T02:08:56;27.08;;;16.05;;
42912;SDS011;50720;54.324;18.558;2023-10-31T02:11:44;27.77;;;17.52;;
42912;SDS011;50720;54.324;18.558;2023-10-31T02:14:32;27.27;;;17.75;;
42912;SDS011;50720;54.324;18.558;2023-10-31T02:17:20;30.65;;;17.80;;
42912;SDS011;50720;54.324;18.558;2023-10-31T02:20:07;33.83;;;20.55;;
42912;SDS011;50720;54.324;18.558;2023-10-31T02:22:56;25.05;;;17.25;;
42912;SDS011;50720;54.324;18.558;2023-10-31T02:25:43;32.60;;;18.63;;
42912;SDS011;50720;54.324;18.558;2023-10-31T02:28:31;32.40;;;18.67;;
42912;SDS011;50720;54.324;18.558;2023-10-31T02:31:18;29.58;;;18.23;;
42912;SDS011;50720;54.324;18.558;2023-10-31T02:34:05;29.90;;;20.27;;
42912;SDS011;50720;54.324;18.558;2023-10-31T02:36:52;30.83;;;19.08;;
42912;SDS011;50720;54.324;18.558;2023-10-31T02:39:40;30.48;;;19.05;;
42912;SDS011;50720;54.324;18.558;2023-10-31T02:42:27;29.98;;;19.05;;
42912;SDS011;50720;54.324;18.558;2023-10-31T02:45:14;28.77;;;17.98;;
42912;SDS011;50720;54.324;18.558;2023-10-31T02:48:01;33.45;;;18.02;;
42912;SDS011;50720;54.324;18.558;2023-10-31T02:50:48;32.30;;;19.05;;
42912;SDS011;50720;54.324;18.558;2023-10-31T02:53:35;32.30;;;18.88;;
42912;SDS011;50720;54.324;18.558;2023-10-31T02:56:24;30.98;;;18.30;;
42912;SDS011;50720;54.324;18.558;2023-10-31T02:59:11;32.55;;;20.35;;
42912;SDS011;50720;54.324;18.558;2023-10-31T03:01:58;36.13;;;22.15;;
42912;SDS011;50720;54.324;18.558;2023-10-31T03:04:46;33.75;;;20.67;;
42912;SDS011;50720;54.324;18.558;2023-10-31T03:07:33;38.03;;;21.83;;
42912;SDS011;50720;54.324;18.558;2023-10-31T03:10:19;38.88;;;22.83;;
42912;SDS011;50720;54.324;18.558;2023-10-31T03:13:08;34.67;;;20.45;;
42912;SDS011;50720;54.324;18.558;2023-10-31T03:15:55;32.53;;;20.35;;
42912;SDS011;50720;54.324;18.558;2023-10-31T03:18:42;31.65;;;19.85;;
42912;SDS011;50720;54.324;18.558;2023-10-31T03:21:29;31.17;;;20.75;;
42912;SDS011;50720;54.324;18.558;2023-10-31T03:24:16;37.50;;;20.40;;
42912;SDS011;50720;54.324;18.558;2023-10-31T03:27:03;32.47;;;19.73;;
42912;SDS011;50720;54.324;18.558;2023-10-31T03:29:52;30.42;;;19.77;;
42912;SDS011;50720;54.324;18.558;2023-10-31T03:32:39;30.50;;;19.17;;
42912;SDS011;50720;54.324;18.558;2023-10-31T03:35:27;35.15;;;19.48;;
42912;SDS011;50720;54.324;18.558;2023-10-31T03:38:13;28.88;;;19.05;;
42912;SDS011;50720;54.324;18.558;2023-10-31T03:41:01;33.22;;;18.42;;
42912;SDS011;50720;54.324;18.558;2023-10-31T03:43:48;32.20;;;19.25;;
42912;SDS011;50720;54.324;18.558;2023-10-31T03:46:36;32.65;;;18.60;;
42912;SDS011;50720;54.324;18.558;2023-10-31T03:49:23;28.15;;;17.73;;
42912;SDS011;50720;54.324;18.558;2023-10-31T03:52:11;30.02;;;17.42;;
42912;SDS011;50720;54.324;18.558;2023-10-31T03:54:57;33.08;;;18.58;;
42912;SDS011;50720;54.324;18.558;2023-10-31T03:57:45;30.95;;;17.77;;
42912;SDS011;50720;54.324;18.558;2023-10-31T04:00:31;28.13;;;16.85;;
42912;SDS011;50720;54.324;18.558;2023-10-31T04:03:20;30.08;;;18.42;;
42912;SDS011;50720;54.324;18.558;2023-10-31T04:06:07;28.02;;;16.73;;
42912;SDS011;50720;54.324;18.558;2023-10-31T04:08:54;25.50;;;17.55;;
42912;SDS011;50720;54.324;18.558;2023-10-31T04:11:41;26.40;;;17.35;;
42912;SDS011;50720;54.324;18.558;2023-10-31T04:14:28;27.02;;;16.90;;
42912;SDS011;50720;54.324;18.558;2023-10-31T04:17:15;27.13;;;15.93;;
42912;SDS011;50720;54.324;18.558;2023-10-31T04:20:04;25.92;;;17.00;;
42912;SDS011;50720;54.324;18.558;2023-10-31T04:22:52;26.30;;;15.80;;
42912;SDS011;50720;54.324;18.558;2023-10-31T04:25:40;29.00;;;17.20;;
42912;SDS011;50720;54.324;18.558;2023-10-31T04:28:26;26.95;;;16.08;;
42912;SDS011;50720;54.324;18.558;2023-10-31T04:31:14;29.50;;;17.88;;
42912;SDS011;50720;54.324;18.558;2023-10-31T04:34:01;28.52;;;17.02;;
42912;SDS011;50720;54.324;18.558;2023-10-31T04:36:49;30.13;;;18.60;;
42912;SDS011;50720;54.324;18.558;2023-10-31T04:39:36;23.42;;;16.50;;
42912;SDS011;50720;54.324;18.558;2023-10-31T04:42:24;25.02;;;15.85;;
42912;SDS011;50720;54.324;18.558;2023-10-31T04:45:10;25.42;;;14.77;;
42912;SDS011;50720;54.324;18.558;2023-10-31T04:47:57;26.85;;;15.52;;
42912;SDS011;50720;54.324;18.558;2023-10-31T04:50:44;26.30;;;15.70;;
42912;SDS011;50720;54.324;18.558;2023-10-31T04:53:33;22.58;;;13.95;;
42912;SDS011;50720;54.324;18.558;2023-10-31T04:56:20;24.83;;;15.75;;
42912;SDS011;50720;54.324;18.558;2023-10-31T04:59:07;23.73;;;14.98;;
42912;SDS011;50720;54.324;18.558;2023-10-31T05:01:54;21.30;;;14.32;;
42912;SDS011;50720;54.324;18.558;2023-10-31T05:04:41;26.48;;;15.57;;
42912;SDS011;50720;54.324;18.558;2023-10-31T05:07:28;31.00;;;17.38;;
42912;SDS011;50720;54.324;18.558;2023-10-31T05:10:18;27.67;;;17.38;;
42912;SDS011;50720;54.324;18.558;2023-10-31T05:13:05;28.88;;;15.65;;
42912;SDS011;50720;54.324;18.558;2023-10-31T05:15:52;32.70;;;18.10;;
42912;SDS011;50720;54.324;18.558;2023-10-31T05:18:39;24.35;;;14.93;;
42912;SDS011;50720;54.324;18.558;2023-10-31T05:21:26;24.88;;;14.50;;
42912;SDS011;50720;54.324;18.558;2023-10-31T05:24:13;20.73;;;13.50;;
42912;SDS011;50720;54.324;18.558;2023-10-31T05:27:02;21.33;;;14.02;;
42912;SDS011;50720;54.324;18.558;2023-10-31T05:29:52;24.58;;;15.13;;
42912;SDS011;50720;54.324;18.558;2023-10-31T05:32:39;21.40;;;14.20;;
42912;SDS011;50720;54.324;18.558;2023-10-31T05:35:26;20.08;;;13.85;;
42912;SDS011;50720;54.324;18.558;2023-10-31T05:38:14;22.83;;;15.75;;
42912;SDS011;50720;54.324;18.558;2023-10-31T05:41:01;24.10;;;14.73;;
42912;SDS011;50720;54.324;18.558;2023-10-31T05:43:50;21.90;;;14.60;;
42912;SDS011;50720;54.324;18.558;2023-10-31T05:46:37;20.73;;;13.25;;
42912;SDS011;50720;54.324;18.558;2023-10-31T05:49:25;25.00;;;14.05;;
42912;SDS011;50720;54.324;18.558;2023-10-31T05:52:12;26.23;;;14.90;;
42912;SDS011;50720;54.324;18.558;2023-10-31T05:54:59;26.70;;;14.80;;
42912;SDS011;50720;54.324;18.558;2023-10-31T05:57:46;20.23;;;14.25;;
42912;SDS011;50720;54.324;18.558;2023-10-31T06:00:34;22.70;;;14.80;;
42912;SDS011;50720;54.324;18.558;2023-10-31T06:03:23;27.42;;;16.00;;
42912;SDS011;50720;54.324;18.558;2023-10-31T06:06:10;25.25;;;15.80;;
42912;SDS011;50720;54.324;18.558;2023-10-31T06:08:57;26.58;;;16.67;;
42912;SDS011;50720;54.324;18.558;2023-10-31T06:11:45;22.95;;;15.07;;
42912;SDS011;50720;54.324;18.558;2023-10-31T06:14:31;22.88;;;15.27;;
42912;SDS011;50720;54.324;18.558;2023-10-31T06:17:20;25.45;;;15.98;;
42912;SDS011;50720;54.324;18.558;2023-10-31T06:20:07;23.15;;;15.13;;
42912;SDS011;50720;54.324;18.558;2023-10-31T06:22:55;28.73;;;16.45;;
42912;SDS011;50720;54.324;18.558;2023-10-31T06:25:43;26.60;;;16.60;;
42912;SDS011;50720;54.324;18.558;2023-10-31T06:28:31;27.65;;;17.05;;
42912;SDS011;50720;54.324;18.558;2023-10-31T06:31:19;27.40;;;17.55;;
42912;SDS011;50720;54.324;18.558;2023-10-31T06:34:08;26.50;;;17.05;;
42912;SDS011;50720;54.324;18.558;2023-10-31T06:36:55;30.08;;;16.45;;
42912;SDS011;50720;54.324;18.558;2023-10-31T06:39:43;29.83;;;16.85;;
42912;SDS011;50720;54.324;18.558;2023-10-31T06:42:30;31.80;;;18.45;;
42912;SDS011;50720;54.324;18.558;2023-10-31T06:45:17;31.63;;;20.25;;
42912;SDS011;50720;54.324;18.558;2023-10-31T06:48:05;29.38;;;19.20;;
42912;SDS011;50720;54.324;18.558;2023-10-31T06:50:55;32.22;;;20.73;;
42912;SDS011;50720;54.324;18.558;2023-10-31T06:53:42;33.92;;;21.98;;
42912;SDS011;50720;54.324;18.558;2023-10-31T06:56:30;32.20;;;21.77;;
42912;SDS011;50720;54.324;18.558;2023-10-31T06:59:17;35.33;;;21.25;;
42912;SDS011;50720;54.324;18.558;2023-10-31T07:02:04;33.30;;;22.85;;
42912;SDS011;50720;54.324;18.558;2023-10-31T07:04:51;32.25;;;21.73;;
42912;SDS011;50720;54.324;18.558;2023-10-31T07:07:40;37.80;;;21.50;;
42912;SDS011;50720;54.324;18.558;2023-10-31T07:10:27;36.72;;;22.15;;
42912;SDS011;50720;54.324;18.558;2023-10-31T07:13:14;32.15;;;20.67;;
42912;SDS011;50720;54.324;18.558;2023-10-31T07:16:01;32.03;;;22.15;;
42912;SDS011;50720;54.324;18.558;2023-10-31T07:18:49;34.47;;;23.67;;
42912;SDS011;50720;54.324;18.558;2023-10-31T07:21:36;39.00;;;23.30;;
42912;SDS011;50720;54.324;18.558;2023-10-31T07:24:24;35.78;;;23.27;;
42912;SDS011;50720;54.324;18.558;2023-10-31T07:27:12;37.63;;;22.95;;
42912;SDS011;50720;54.324;18.558;2023-10-31T07:29:59;39.80;;;24.38;;
42912;SDS011;50720;54.324;18.558;2023-10-31T07:32:46;41.47;;;25.63;;
42912;SDS011;50720;54.324;18.558;2023-10-31T07:35:34;39.10;;;23.63;;
42912;SDS011;50720;54.324;18.558;2023-10-31T07:38:21;33.72;;;23.92;;
42912;SDS011;50720;54.324;18.558;2023-10-31T07:41:10;37.35;;;23.75;;
42912;SDS011;50720;54.324;18.558;2023-10-31T07:43:56;38.33;;;23.27;;
42912;SDS011;50720;54.324;18.558;2023-10-31T07:46:44;35.92;;;23.85;;
42912;SDS011;50720;54.324;18.558;2023-10-31T07:49:30;35.22;;;23.70;;
42912;SDS011;50720;54.324;18.558;2023-10-31T07:52:17;37.28;;;24.15;;
42912;SDS011;50720;54.324;18.558;2023-10-31T07:55:05;33.38;;;24.02;;
42912;SDS011;50720;54.324;18.558;2023-10-31T07:57:54;38.33;;;23.50;;
42912;SDS011;50720;54.324;18.558;2023-10-31T08:00:41;42.92;;;23.85;;
42912;SDS011;50720;54.324;18.558;2023-10-31T08:03:28;40.50;;;26.02;;
42912;SDS011;50720;54.324;18.558;2023-10-31T08:06:14;43.63;;;24.83;;
42912;SDS011;50720;54.324;18.558;2023-10-31T08:09:02;37.05;;;24.15;;
42912;SDS011;50720;54.324;18.558;2023-10-31T08:11:49;39.83;;;24.10;;
42912;SDS011;50720;54.324;18.558;2023-10-31T08:14:38;40.03;;;25.75;;
42912;SDS011;50720;54.324;18.558;2023-10-31T08:17:25;44.42;;;26.35;;
42912;SDS011;50720;54.324;18.558;2023-10-31T08:20:12;43.08;;;23.88;;
42912;SDS011;50720;54.324;18.558;2023-10-31T08:22:59;39.72;;;24.33;;
42912;SDS011;50720;54.324;18.558;2023-10-31T08:25:47;41.70;;;26.70;;
42912;SDS011;50720;54.324;18.558;2023-10-31T08:28:34;48.42;;;28.42;;
42912;SDS011;50720;54.324;18.558;2023-10-31T08:31:23;42.05;;;26.50;;
42912;SDS011;50720;54.324;18.558;2023-10-31T08:34:11;42.22;;;28.17;;
42912;SDS011;50720;54.324;18.558;2023-10-31T08:36:58;39.83;;;27.58;;
42912;SDS011;50720;54.324;18.558;2023-10-31T08:39:45;37.95;;;25.42;;
42912;SDS011;50720;54.324;18.558;2023-10-31T08:42:32;36.33;;;24.75;;
42912;SDS011;50720;54.324;18.558;2023-10-31T08:45:19;43.83;;;28.17;;
42912;SDS011;50720;54.324;18.558;2023-10-31T08:48:08;41.70;;;25.73;;
42912;SDS011;50720;54.324;18.558;2023-10-31T08:50:55;45.47;;;27.30;;
42912;SDS011;50720;54.324;18.558;2023-10-31T08:53:43;38.42;;;24.25;;
42912;SDS011;50720;54.324;18.558;2023-10-31T08:56:30;36.33;;;25.23;;
42912;SDS011;50720;54.324;18.558;2023-10-31T08:59:18;39.85;;;25.27;;
42912;SDS011;50720;54.324;18.558;2023-10-31T09:02:05;37.92;;;24.25;;
42912;SDS011;50720;54.324;18.558;2023-10-31T09:04:54;40.55;;;25.00;;
42912;SDS011;50720;54.324;18.558;2023-10-31T09:07:41;37.42;;;25.40;;
42912;SDS011;50720;54.324;18.558;2023-10-31T09:10:28;38.53;;;23.95;;
42912;SDS011;50720;54.324;18.558;2023-10-31T09:13:15;38.47;;;25.05;;
42912;SDS011;50720;54.324;18.558;2023-10-31T09:16:03;37.33;;;24.10;;
42912;SDS011;50720;54.324;18.558;2023-10-31T09:18:50;39.28;;;24.25;;
42912;SDS011;50720;54.324;18.558;2023-10-31T09:21:39;37.95;;;24.73;;
42912;SDS011;50720;54.324;18.558;2023-10-31T09:24:26;37.35;;;21.98;;
42912;SDS011;50720;54.324;18.558;2023-10-31T09:27:13;33.88;;;21.20;;
42912;SDS011;50720;54.324;18.558;2023-10-31T09:30:00;35.47;;;22.08;;
42912;SDS011;50720;54.324;18.558;2023-10-31T09:32:47;28.48;;;19.17;;
42912;SDS011;50720;54.324;18.558;2023-10-31T09:35:34;28.95;;;20.10;;
42912;SDS011;50720;54.324;18.558;2023-10-31T09:38:23;26.67;;;18.95;;
42912;SDS011;50720;54.324;18.558;2023-10-31T09:41:12;26.23;;;18.52;;
42912;SDS011;50720;54.324;18.558;2023-10-31T09:43:59;29.35;;;19.45;;
42912;SDS011;50720;54.324;18.558;2023-10-31T09:46:48;28.83;;;18.00;;
42912;SDS011;50720;54.324;18.558;2023-10-31T09:49:37;27.67;;;17.92;;
42912;SDS011;50720;54.324;18.558;2023-10-31T09:52:24;24.35;;;17.27;;
42912;SDS011;50720;54.324;18.558;2023-10-31T09:55:13;23.10;;;15.90;;
42912;SDS011;50720;54.324;18.558;2023-10-31T09:58:01;25.05;;;18.27;;
42912;SDS011;50720;54.324;18.558;2023-10-31T10:00:49;25.35;;;17.15;;
42912;SDS011;50720;54.324;18.558;2023-10-31T10:03:35;26.90;;;15.70;;
42912;SDS011;50720;54.324;18.558;2023-10-31T10:06:23;24.10;;;16.63;;
42912;SDS011;50720;54.324;18.558;2023-10-31T10:09:10;21.08;;;14.88;;
42912;SDS011;50720;54.324;18.558;2023-10-31T10:12:00;21.42;;;14.45;;
42912;SDS011;50720;54.324;18.558;2023-10-31T10:14:48;20.38;;;13.70;;
42912;SDS011;50720;54.324;18.558;2023-10-31T10:17:35;19.40;;;13.93;;
42912;SDS011;50720;54.324;18.558;2023-10-31T10:20:23;18.13;;;13.30;;
42912;SDS011;50720;54.324;18.558;2023-10-31T10:23:10;19.48;;;12.52;;
42912;SDS011;50720;54.324;18.558;2023-10-31T10:25:58;18.00;;;11.98;;
42912;SDS011;50720;54.324;18.558;2023-10-31T10:28:48;13.13;;;11.73;;
42912;SDS011;50720;54.324;18.558;2023-10-31T10:31:35;16.42;;;11.40;;
42912;SDS011;50720;54.324;18.558;2023-10-31T10:34:22;13.73;;;10.80;;
42912;SDS011;50720;54.324;18.558;2023-10-31T10:37:10;12.65;;;9.30;;
42912;SDS011;50720;54.324;18.558;2023-10-31T10:39:58;11.27;;;9.18;;
42912;SDS011;50720;54.324;18.558;2023-10-31T10:42:47;8.25;;;7.10;;
42912;SDS011;50720;54.324;18.558;2023-10-31T10:45:37;11.10;;;7.32;;
42912;SDS011;50720;54.324;18.558;2023-10-31T10:48:27;8.48;;;6.63;;
42912;SDS011;50720;54.324;18.558;2023-10-31T10:51:17;7.90;;;7.10;;
42912;SDS011;50720;54.324;18.558;2023-10-31T10:54:15;8.35;;;6.82;;
42912;SDS011;50720;54.324;18.558;2023-10-31T10:57:13;8.00;;;6.35;;
42912;SDS011;50720;54.324;18.558;2023-10-31T11:00:04;7.82;;;6.57;;
42912;SDS011;50720;54.324;18.558;2023-10-31T11:02:55;8.13;;;6.43;;
42912;SDS011;50720;54.324;18.558;2023-10-31T11:05:43;7.20;;;6.45;;
42912;SDS011;50720;54.324;18.558;2023-10-31T11:08:30;9.10;;;6.00;;
42912;SDS011;50720;54.324;18.558;2023-10-31T11:11:19;7.55;;;5.80;;
42912;SDS011;50720;54.324;18.558;2023-10-31T11:14:08;6.60;;;5.60;;
42912;SDS011;50720;54.324;18.558;2023-10-31T11:16:56;8.20;;;6.03;;
42912;SDS011;50720;54.324;18.558;2023-10-31T11:19:49;7.50;;;5.47;;
42912;SDS011;50720;54.324;18.558;2023-10-31T11:22:37;8.43;;;5.63;;
42912;SDS011;50720;54.324;18.558;2023-10-31T11:25:25;7.10;;;6.18;;
42912;SDS011;50720;54.324;18.558;2023-10-31T11:28:12;14.10;;;7.13;;
42912;SDS011;50720;54.324;18.558;2023-10-31T11:31:00;8.15;;;5.25;;
42912;SDS011;50720;54.324;18.558;2023-10-31T11:33:47;6.43;;;4.97;;
42912;SDS011;50720;54.324;18.558;2023-10-31T11:36:36;6.85;;;4.68;;
42912;SDS011;50720;54.324;18.558;2023-10-31T11:39:23;8.38;;;4.70;;
42912;SDS011;50720;54.324;18.558;2023-10-31T11:42:17;5.93;;;4.80;;
42912;SDS011;50720;54.324;18.558;2023-10-31T11:45:05;8.20;;;4.43;;
42912;SDS011;50720;54.324;18.558;2023-10-31T11:47:54;6.32;;;4.75;;
42912;SDS011;50720;54.324;18.558;2023-10-31T11:50:41;5.60;;;4.35;;
42912;SDS011;50720;54.324;18.558;2023-10-31T11:53:30;5.10;;;4.38;;
42912;SDS011;50720;54.324;18.558;2023-10-31T11:56:17;4.43;;;3.50;;
42912;SDS011;50720;54.324;18.558;2023-10-31T11:59:05;5.05;;;4.40;;
42912;SDS011;50720;54.324;18.558;2023-10-31T12:01:52;3.78;;;3.38;;
42912;SDS011;50720;54.324;18.558;2023-10-31T12:04:39;3.30;;;3.00;;
42912;SDS011;50720;54.324;18.558;2023-10-31T12:07:26;4.05;;;3.20;;
42912;SDS011;50720;54.324;18.558;2023-10-31T12:10:20;6.13;;;3.67;;
42912;SDS011;50720;54.324;18.558;2023-10-31T12:13:08;2.45;;;2.25;;
42912;SDS011;50720;54.324;18.558;2023-10-31T12:15:59;5.10;;;3.42;;
42912;SDS011;50720;54.324;18.558;2023-10-31T12:18:53;3.70;;;3.20;;
42912;SDS011;50720;54.324;18.558;2023-10-31T12:21:42;4.05;;;2.97;;
42912;SDS011;50720;54.324;18.558;2023-10-31T12:24:31;3.27;;;2.80;;
42912;SDS011;50720;54.324;18.558;2023-10-31T12:27:21;4.65;;;3.13;;
42912;SDS011;50720;54.324;18.558;2023-10-31T12:30:08;3.83;;;2.47;;
42912;SDS011;50720;54.324;18.558;2023-10-31T12:32:56;2.70;;;2.50;;
42912;SDS011;50720;54.324;18.558;2023-10-31T12:35:43;2.88;;;2.15;;
42912;SDS011;50720;54.324;18.558;2023-10-31T12:38:31;3.22;;;2.63;;
42912;SDS011;50720;54.324;18.558;2023-10-31T12:41:18;3.95;;;2.65;;
42912;SDS011;50720;54.324;18.558;2023-10-31T12:44:07;2.95;;;2.70;;
42912;SDS011;50720;54.324;18.558;2023-10-31T12:46:55;4.65;;;2.50;;
42912;SDS011;50720;54.324;18.558;2023-10-31T12:49:42;2.88;;;2.55;;
42912;SDS011;50720;54.324;18.558;2023-10-31T12:55:37;2.50;;;2.30;;
42912;SDS011;50720;54.324;18.558;2023-10-31T12:58:25;2.42;;;2.13;;
42912;SDS011;50720;54.324;18.558;2023-10-31T13:01:13;2.80;;;2.60;;
42912;SDS011;50720;54.324;18.558;2023-10-31T13:04:01;3.00;;;2.38;;
42912;SDS011;50720;54.324;18.558;2023-10-31T13:06:54;3.17;;;2.53;;
42912;SDS011;50720;54.324;18.558;2023-10-31T13:09:42;3.83;;;2.63;;
42912;SDS011;50720;54.324;18.558;2023-10-31T13:12:31;2.45;;;2.25;;
42912;SDS011;50720;54.324;18.558;2023-10-31T13:15:19;3.55;;;2.75;;
42912;SDS011;50720;54.324;18.558;2023-10-31T13:18:09;4.47;;;3.17;;
42912;SDS011;50720;54.324;18.558;2023-10-31T13:20:59;4.50;;;2.30;;
42912;SDS011;50720;54.324;18.558;2023-10-31T13:23:46;3.75;;;2.58;;
42912;SDS011;50720;54.324;18.558;2023-10-31T13:26:33;2.70;;;2.47;;
42912;SDS011;50720;54.324;18.558;2023-10-31T13:29:20;3.38;;;2.90;;
42912;SDS011;50720;54.324;18.558;2023-10-31T13:32:09;3.20;;;2.70;;
42912;SDS011;50720;54.324;18.558;2023-10-31T13:34:58;4.82;;;3.55;;
42912;SDS011;50720;54.324;18.558;2023-10-31T13:37:45;4.93;;;3.83;;
42912;SDS011;50720;54.324;18.558;2023-10-31T13:40:32;2.53;;;2.33;;
42912;SDS011;50720;54.324;18.558;2023-10-31T13:43:19;3.90;;;3.03;;
42912;SDS011;50720;54.324;18.558;2023-10-31T13:46:07;3.30;;;2.78;;
42912;SDS011;50720;54.324;18.558;2023-10-31T13:48:54;5.40;;;3.50;;
42912;SDS011;50720;54.324;18.558;2023-10-31T13:51:42;4.38;;;3.45;;
42912;SDS011;50720;54.324;18.558;2023-10-31T13:54:29;4.45;;;3.20;;
42912;SDS011;50720;54.324;18.558;2023-10-31T13:57:16;4.35;;;3.25;;
42912;SDS011;50720;54.324;18.558;2023-10-31T14:00:04;3.35;;;2.72;;
42912;SDS011;50720;54.324;18.558;2023-10-31T14:02:53;3.17;;;2.85;;
42912;SDS011;50720;54.324;18.558;2023-10-31T14:05:40;4.43;;;3.47;;
42912;SDS011;50720;54.324;18.558;2023-10-31T14:08:29;6.18;;;3.25;;
42912;SDS011;50720;54.324;18.558;2023-10-31T14:11:16;3.22;;;2.65;;
42912;SDS011;50720;54.324;18.558;2023-10-31T14:14:03;3.97;;;3.30;;
42912;SDS011;50720;54.324;18.558;2023-10-31T14:16:53;2.97;;;2.67;;
42912;SDS011;50720;54.324;18.558;2023-10-31T14:19:40;4.70;;;3.28;;
42912;SDS011;50720;54.324;18.558;2023-10-31T14:22:28;4.50;;;2.83;;
42912;SDS011;50720;54.324;18.558;2023-10-31T14:25:17;3.85;;;2.65;;
42912;SDS011;50720;54.324;18.558;2023-10-31T14:28:04;2.40;;;1.80;;
42912;SDS011;50720;54.324;18.558;2023-10-31T14:30:51;2.28;;;2.08;;
42912;SDS011;50720;54.324;18.558;2023-10-31T14:33:38;2.65;;;1.75;;
42912;SDS011;50720;54.324;18.558;2023-10-31T14:36:25;2.22;;;1.73;;
42912;SDS011;50720;54.324;18.558;2023-10-31T14:39:12;1.85;;;1.60;;
42912;SDS011;50720;54.324;18.558;2023-10-31T14:42:01;4.60;;;1.90;;
42912;SDS011;50720;54.324;18.558;2023-10-31T14:44:49;2.53;;;1.80;;
42912;SDS011;50720;54.324;18.558;2023-10-31T14:47:37;3.58;;;1.70;;
42912;SDS011;50720;54.324;18.558;2023-10-31T14:50:24;2.90;;;1.77;;
42912;SDS011;50720;54.324;18.558;2023-10-31T14:53:11;1.50;;;1.30;;
42912;SDS011;50720;54.324;18.558;2023-10-31T14:55:58;3.35;;;1.63;;
42912;SDS011;50720;54.324;18.558;2023-10-31T14:58:48;2.85;;;2.55;;
42912;SDS011;50720;54.324;18.558;2023-10-31T15:01:34;1.83;;;1.40;;
42912;SDS011;50720;54.324;18.558;2023-10-31T15:04:22;3.40;;;2.05;;
42912;SDS011;50720;54.324;18.558;2023-10-31T15:07:08;3.50;;;1.88;;
42912;SDS011;50720;54.324;18.558;2023-10-31T15:09:56;2.20;;;1.65;;
42912;SDS011;50720;54.324;18.558;2023-10-31T15:12:43;2.25;;;1.70;;
42912;SDS011;50720;54.324;18.558;2023-10-31T15:15:32;1.42;;;1.33;;
42912;SDS011;50720;54.324;18.558;2023-10-31T15:18:19;2.53;;;1.85;;
42912;SDS011;50720;54.324;18.558;2023-10-31T15:21:07;2.70;;;1.67;;
42912;SDS011;50720;54.324;18.558;2023-10-31T15:23:53;3.08;;;1.73;;
42912;SDS011;50720;54.324;18.558;2023-10-31T15:26:41;1.65;;;1.52;;
42912;SDS011;50720;54.324;18.558;2023-10-31T15:29:28;1.85;;;1.50;;
42912;SDS011;50720;54.324;18.558;2023-10-31T15:32:17;1.95;;;1.80;;
42912;SDS011;50720;54.324;18.558;2023-10-31T15:35:04;1.90;;;1.60;;
42912;SDS011;50720;54.324;18.558;2023-10-31T15:37:52;2.38;;;1.58;;
42912;SDS011;50720;54.324;18.558;2023-10-31T15:40:39;2.35;;;1.80;;
42912;SDS011;50720;54.324;18.558;2023-10-31T15:43:27;3.60;;;1.98;;
42912;SDS011;50720;54.324;18.558;2023-10-31T15:46:13;2.20;;;2.00;;
42912;SDS011;50720;54.324;18.558;2023-10-31T15:49:03;2.88;;;2.08;;
42912;SDS011;50720;54.324;18.558;2023-10-31T15:51:50;3.53;;;1.70;;
42912;SDS011;50720;54.324;18.558;2023-10-31T15:54:37;2.45;;;2.20;;
42912;SDS011;50720;54.324;18.558;2023-10-31T15:57:24;2.00;;;1.60;;
42912;SDS011;50720;54.324;18.558;2023-10-31T16:00:12;2.40;;;1.75;;
42912;SDS011;50720;54.324;18.558;2023-10-31T16:02:59;2.13;;;1.92;;
42912;SDS011;50720;54.324;18.558;2023-10-31T16:05:48;1.90;;;1.73;;
42912;SDS011;50720;54.324;18.558;2023-10-31T16:08:35;3.20;;;2.47;;
42912;SDS011;50720;54.324;18.558;2023-10-31T16:11:24;2.47;;;2.28;;
42912;SDS011;50720;54.324;18.558;2023-10-31T16:14:11;3.70;;;2.33;;
42912;SDS011;50720;54.324;18.558;2023-10-31T16:16:59;2.45;;;2.03;;
42912;SDS011;50720;54.324;18.558;2023-10-31T16:19:46;2.30;;;1.70;;